Scituate Harbor, Massachusetts
Current Conditions -  °F | °C
As of 8:54 PM on Friday 21 Nov 2014 (Local Time) from KBOS Reporting Station
Clear Clear  
Wind Chill: 19°   Ceiling: Unl
Heat Index: 29°   Visibility: 10mi
Dew Point:   Wind: 12mph
Humidity: 36%   Direction: 270°W
Pressure: 30.38"   Gusts: 22mph
Location:  42.201°N, 70.7631°W
Report Text: KBOS 220154Z 27010G19KT 10SM CLR M02/M15 A3038 RMK AO2 SLP288 T10171150
Loading
Personal Weather Stations






























Interactive Weather Map New forecast layout! Learn more

10-Day Weather Forecast

Advertisements
Track Severe Weather on mobile